Main page
METAR-TAF:

METAR-TAF

Airports :

Morón de la Frontera, Spain

Morón Air Base

latitude: 37-09N, longitude: 005-37W, elevation: 87 m

Current weather observation

The report was made 54 minutes ago, at 04:00 UTC
Wind 3 kt from the East
Temperature 15°C
Humidity 77%
Pressure 1014 hPa
Visibility 10 km or more
no clouds below 1500 m and no cumulonimbus

METAR: LEMO 220400Z 09003KT CAVOK 15/11 Q1014 NOSIG

Time: 06:54 (04:54 UTC)

Forecast

The report was made 2 hours and 54 minutes ago, at 02:00 UTC
Forecast valid from 22 at 03 UTC to 22 at 12 UTC
Wind 4 kt from the South
Visibility 10 km or more
no clouds below 1500 m and no cumulonimbus

TAF: LEMO 220200Z 2203/2212 19004KT CAVOK

Weather observations and forecasts of more than 4000 airports (METAR and TAF reports).

The available stations are represented by yellow and red dots on the map.

Hover mouse over dot to see the name of the station.

Then click to see weather observations and forecasts.

To change the map : click on the green buttons with a black cross to zoom in, on the green button with a dash to zoom out, or on the green arrows for adjacent maps.


METAR-TAF: